Terminal Aerodrome Forecast
Issued by NWS

Home | Current Version | Previous Version | Text Only | Print | Product List | Glossary On
Versions: 1 2 3 4 5 6 7 8 9 10 11 12 13 14 15 16 17 18 19 20 21 22 23 24 25 26 27
908
FTAK31 PANC 291126
TAFAIL
TAF
PAIL 291126Z 2912/3012 09011G18KT P6SM VCSH SCT035 BKN045 BKN080
     FM291800 10018G26KT P6SM -SHRA BKN040 OVC060
     FM300600 07015G23KT P6SM VCSH BKN040 OVC060=

USA.gov is the U.S. government's official web portal to all federal, state and local government web resources and services.